createdAt,value
2018-08-09T00:00:03.682Z,20.89
2018-08-09T00:02:03.825Z,20.90
2018-08-09T00:04:03.897Z,20.86
2018-08-09T00:05:03.461Z,20.82
2018-08-09T00:06:04.784Z,20.77
2018-08-09T00:07:03.390Z,20.73
2018-08-09T00:09:03.432Z,20.55
2018-08-09T00:10:03.739Z,20.56
2018-08-09T00:11:03.387Z,20.44
2018-08-09T00:12:03.508Z,20.42
2018-08-09T00:13:03.366Z,20.34
2018-08-09T00:14:03.381Z,20.33
2018-08-09T00:15:03.354Z,20.37
2018-08-09T00:16:03.335Z,20.41
2018-08-09T00:20:03.756Z,20.33
2018-08-09T00:21:03.252Z,20.33
2018-08-09T00:22:03.180Z,20.15
2018-08-09T00:23:03.190Z,20.26
2018-08-09T00:24:03.210Z,20.18
2018-08-09T00:25:03.190Z,20.09
2018-08-09T00:26:03.727Z,20.12
2018-08-09T00:27:03.221Z,20.07
2018-08-09T00:28:03.196Z,20.11
2018-08-09T00:30:03.081Z,20.17
2018-08-09T00:31:03.506Z,20.26
2018-08-09T00:32:03.510Z,20.25
2018-08-09T00:33:03.023Z,20.26
2018-08-09T00:34:02.987Z,20.19
2018-08-09T00:35:03.129Z,20.26
2018-08-09T00:36:02.969Z,20.29
2018-08-09T00:37:02.957Z,20.25
2018-08-09T00:38:03.557Z,20.17
2018-08-09T00:39:03.572Z,20.22
2018-08-09T00:40:03.464Z,20.22
2018-08-09T00:41:03.464Z,20.17
2018-08-09T00:42:03.002Z,20.17
2018-08-09T00:43:03.115Z,20.14
2018-08-09T00:44:03.655Z,20.08
2018-08-09T00:45:02.951Z,20.08
2018-08-09T00:47:02.993Z,19.96
2018-08-09T00:48:02.898Z,19.92
2018-08-09T00:49:03.386Z,19.89
2018-08-09T00:50:03.382Z,19.75
2018-08-09T00:51:02.900Z,19.67
2018-08-09T00:53:02.771Z,19.54
2018-08-09T00:54:02.760Z,19.34
2018-08-09T00:55:02.994Z,19.37
2018-08-09T00:56:04.287Z,19.34
2018-08-09T00:57:02.724Z,19.32
2018-08-09T00:58:02.714Z,19.30
2018-08-09T00:59:02.923Z,19.35
2018-08-09T01:00:02.878Z,19.35
2018-08-09T01:01:02.839Z,19.35
2018-08-09T01:02:03.504Z,19.34
2018-08-09T01:03:02.716Z,19.32
2018-08-09T01:04:02.813Z,19.34
2018-08-09T01:05:02.668Z,19.37
2018-08-09T01:06:02.769Z,19.32
2018-08-09T01:07:02.768Z,19.35
2018-08-09T01:08:02.794Z,19.41
2018-08-09T01:09:03.077Z,19.35
2018-08-09T01:10:02.824Z,19.42
2018-08-09T01:11:02.705Z,19.37
2018-08-09T01:12:02.710Z,19.42
2018-08-09T01:13:02.647Z,19.44
2018-08-09T01:14:02.767Z,19.44
2018-08-09T01:15:02.663Z,19.37
2018-08-09T01:17:02.966Z,19.27
2018-08-09T01:18:02.959Z,19.32
2018-08-09T01:19:02.510Z,19.34
2018-08-09T01:20:02.631Z,19.39
2018-08-09T01:21:02.591Z,19.54
2018-08-09T01:22:02.583Z,19.75
2018-08-09T01:23:02.661Z,19.86
2018-08-09T01:24:02.887Z,20.07
2018-08-09T01:25:02.500Z,19.99
2018-08-09T01:26:02.514Z,20.05
2018-08-09T01:27:02.560Z,20.05
2018-08-09T01:28:02.413Z,20.02
2018-08-09T01:29:02.562Z,20.08
2018-08-09T01:30:02.332Z,20.15
2018-08-09T01:31:02.776Z,20.22
2018-08-09T01:32:02.310Z,20.29
2018-08-09T01:33:02.293Z,20.42
2018-08-09T01:34:02.278Z,20.36
2018-08-09T01:35:02.420Z,20.46
2018-08-09T01:36:02.261Z,20.37
2018-08-09T01:37:02.243Z,20.32
2018-08-09T01:38:02.536Z,20.37
2018-08-09T01:39:02.224Z,20.26
2018-08-09T01:40:02.213Z,20.29
2018-08-09T01:41:02.347Z,20.33
2018-08-09T01:42:02.184Z,20.30
2018-08-09T01:43:02.172Z,20.27
2018-08-09T01:44:02.168Z,20.29
2018-08-09T01:46:02.436Z,20.29
2018-08-09T01:47:02.237Z,20.25
2018-08-09T01:48:02.113Z,20.30
2018-08-09T01:49:02.100Z,20.14
2018-08-09T01:50:02.154Z,20.14
2018-08-09T01:51:02.087Z,20.11
2018-08-09T01:52:02.067Z,20.07
2018-08-09T01:53:02.977Z,20.04
2018-08-09T01:54:02.043Z,19.99
2018-08-09T01:57:02.057Z,19.82
2018-08-09T01:58:02.001Z,19.75
2018-08-09T01:59:02.394Z,19.77
2018-08-09T02:00:01.977Z,19.68
2018-08-09T02:01:01.968Z,19.60
2018-08-09T02:02:01.950Z,19.59
2018-08-09T02:03:01.971Z,19.52
2018-08-09T02:04:01.927Z,19.54
2018-08-09T02:05:02.487Z,19.41
2018-08-09T02:06:02.071Z,19.30
2018-08-09T02:08:01.880Z,19.32
2018-08-09T02:09:01.870Z,19.35
2018-08-09T02:10:01.859Z,19.30
2018-08-09T02:11:02.492Z,19.23
2018-08-09T02:12:01.836Z,19.23
2018-08-09T02:13:01.827Z,19.23
2018-08-09T02:14:01.821Z,19.23
2018-08-09T02:15:01.800Z,19.24
2018-08-09T02:16:01.782Z,19.27
2018-08-09T02:17:03.327Z,19.23
2018-08-09T02:18:01.778Z,19.27
2018-08-09T02:19:01.749Z,19.23
2018-08-09T02:20:01.734Z,19.15
2018-08-09T02:21:01.826Z,19.09
2018-08-09T02:22:01.711Z,19.08
2018-08-09T02:23:03.254Z,19.12
2018-08-09T02:24:01.690Z,19.08
2018-08-09T02:25:01.677Z,18.94
2018-08-09T02:27:01.650Z,18.91
2018-08-09T02:30:01.962Z,19.04
2018-08-09T02:31:01.618Z,19.12
2018-08-09T02:32:01.891Z,18.97
2018-08-09T02:33:01.590Z,18.93
2018-08-09T02:34:01.581Z,18.82
2018-08-09T02:35:01.656Z,18.88
2018-08-09T02:38:01.524Z,18.85
2018-08-09T02:39:01.522Z,18.82
2018-08-09T02:41:02.400Z,18.83
2018-08-09T02:42:01.771Z,18.85
2018-08-09T02:43:01.559Z,18.83
2018-08-09T02:44:01.469Z,18.79
2018-08-09T02:45:01.469Z,18.86
2018-08-09T02:46:01.428Z,18.83
2018-08-09T02:48:01.499Z,18.86
2018-08-09T02:49:01.684Z,18.86
2018-08-09T02:51:01.365Z,18.83
2018-08-09T02:52:01.357Z,18.86
2018-08-09T02:53:01.341Z,18.86
2018-08-09T02:54:03.101Z,18.88
2018-08-09T02:55:01.381Z,18.93
2018-08-09T02:57:01.289Z,18.81
2018-08-09T02:58:01.291Z,18.75
2018-08-09T02:59:01.316Z,18.76
2018-08-09T03:00:02.166Z,18.67
2018-08-09T03:01:01.523Z,18.51
2018-08-09T03:02:01.249Z,18.49
2018-08-09T03:03:01.521Z,18.52
2018-08-09T03:04:01.215Z,18.48
2018-08-09T03:06:01.232Z,18.57
2018-08-09T03:07:01.182Z,18.57
2018-08-09T03:08:01.162Z,18.63
2018-08-09T03:09:01.196Z,18.66
2018-08-09T03:10:01.441Z,18.64
2018-08-09T03:12:01.257Z,18.60
2018-08-09T03:13:01.108Z,18.56
2018-08-09T03:14:01.096Z,18.48
2018-08-09T03:15:01.073Z,18.49
2018-08-09T03:16:01.063Z,18.56
2018-08-09T03:17:01.364Z,18.52
2018-08-09T03:19:02.595Z,18.48
2018-08-09T03:20:01.004Z,18.38
2018-08-09T03:21:01.048Z,18.48
2018-08-09T03:22:00.983Z,18.43
2018-08-09T03:23:00.979Z,18.42
2018-08-09T03:24:01.283Z,18.36
2018-08-09T03:25:01.147Z,18.13
2018-08-09T03:26:00.937Z,18.18
2018-08-09T03:27:00.974Z,18.21
2018-08-09T03:28:01.007Z,18.17
2018-08-09T03:29:00.895Z,18.24
2018-08-09T03:30:01.178Z,18.31
2018-08-09T03:31:00.923Z,18.27
2018-08-09T03:32:00.855Z,18.38
2018-08-09T03:33:00.893Z,18.39
2018-08-09T03:35:00.823Z,18.41
2018-08-09T03:38:01.132Z,18.42
2018-08-09T03:39:00.786Z,18.46
2018-08-09T03:40:00.787Z,18.45
2018-08-09T03:42:00.838Z,18.56
2018-08-09T03:44:03.108Z,18.54
2018-08-09T03:45:01.042Z,18.58
2018-08-09T03:46:00.680Z,18.70
2018-08-09T03:47:00.667Z,18.64
2018-08-09T03:48:00.653Z,18.66
2018-08-09T03:49:00.649Z,18.75
2018-08-09T03:50:00.779Z,18.78
2018-08-09T03:51:00.619Z,18.74
2018-08-09T03:52:00.610Z,18.74
2018-08-09T03:53:00.592Z,18.61
2018-08-09T03:54:00.586Z,18.67
2018-08-09T03:55:01.268Z,18.70
2018-08-09T03:56:00.609Z,18.54
2018-08-09T03:57:00.850Z,18.52
2018-08-09T03:58:00.532Z,18.60
2018-08-09T03:59:00.523Z,18.52
2018-08-09T04:00:00.519Z,18.48
2018-08-09T04:02:00.587Z,18.42
2018-08-09T04:03:00.778Z,18.43
2018-08-09T04:04:00.510Z,18.38
2018-08-09T04:05:00.548Z,18.43
2018-08-09T04:06:00.434Z,18.45
2018-08-09T04:07:00.475Z,18.42
2018-08-09T04:08:00.412Z,18.38
2018-08-09T04:09:00.399Z,18.38
2018-08-09T04:10:00.704Z,18.38
2018-08-09T04:11:00.380Z,18.41
2018-08-09T04:12:00.761Z,18.31
2018-08-09T04:13:00.493Z,18.33
2018-08-09T04:15:00.324Z,18.34
2018-08-09T04:16:00.320Z,18.38
2018-08-09T04:18:00.609Z,18.30
2018-08-09T04:19:00.318Z,18.30
2018-08-09T04:21:00.244Z,18.21
2018-08-09T04:22:00.232Z,18.26
2018-08-09T04:25:00.199Z,18.38
2018-08-09T04:26:00.602Z,18.34
2018-08-09T04:27:00.230Z,18.38
2018-08-09T04:28:00.180Z,18.39
2018-08-09T04:29:00.417Z,18.38
2018-08-09T04:30:00.145Z,18.45
2018-08-09T04:31:00.122Z,18.42
2018-08-09T04:32:00.120Z,18.41
2018-08-09T04:33:00.666Z,18.48
2018-08-09T04:36:00.060Z,18.56
2018-08-09T04:37:00.050Z,18.56
2018-08-09T04:38:00.050Z,18.54
2018-08-09T04:39:00.023Z,18.63
2018-08-09T04:40:00.381Z,18.74
2018-08-09T04:41:00.083Z,18.74
2018-08-09T04:42:00.052Z,18.68
2018-08-09T04:42:59.997Z,18.78
2018-08-09T04:43:59.983Z,18.64
2018-08-09T04:45:00.072Z,18.64
2018-08-09T04:47:00.227Z,18.57
2018-08-09T04:48:00.066Z,18.56
2018-08-09T04:49:00.128Z,18.51
2018-08-09T04:49:59.889Z,18.54
2018-08-09T04:50:59.877Z,18.56
2018-08-09T04:52:00.066Z,18.57
2018-08-09T04:52:59.932Z,18.63
2018-08-09T04:54:00.916Z,18.66
2018-08-09T04:55:00.024Z,18.64
2018-08-09T04:56:00.656Z,18.66
2018-08-09T04:57:01.437Z,18.68
2018-08-09T04:58:00.634Z,18.81
2018-08-09T04:59:02.613Z,18.86
2018-08-09T05:00:59.948Z,18.83
2018-08-09T05:02:00.366Z,18.97
2018-08-09T05:02:59.893Z,18.89
2018-08-09T05:04:59.772Z,19.13
2018-08-09T05:06:59.679Z,19.15
2018-08-09T05:07:59.766Z,19.26
2018-08-09T05:09:00.106Z,19.30
2018-08-09T05:09:59.639Z,19.31
2018-08-09T05:10:59.685Z,19.30
2018-08-09T05:11:59.631Z,19.35
2018-08-09T05:12:59.614Z,19.34
2018-08-09T05:13:59.595Z,19.32
2018-08-09T05:15:19.360Z,19.39
2018-08-09T05:19:59.619Z,19.50
2018-08-09T05:20:59.672Z,19.53
2018-08-09T05:21:59.807Z,19.52
2018-08-09T05:22:59.549Z,19.62
2018-08-09T05:23:59.537Z,19.59
2018-08-09T05:24:59.577Z,19.56
2018-08-09T05:25:59.521Z,19.64
2018-08-09T05:26:59.548Z,19.71
2018-08-09T05:27:59.862Z,19.72
2018-08-09T05:29:59.440Z,19.72
2018-08-09T05:30:59.494Z,19.78
2018-08-09T05:31:59.584Z,19.79
2018-08-09T05:32:59.491Z,19.79
2018-08-09T05:33:59.812Z,19.86
2018-08-09T05:34:59.504Z,19.87
2018-08-09T05:35:59.345Z,19.93
2018-08-09T05:36:59.337Z,19.92
2018-08-09T05:37:59.327Z,19.93
2018-08-09T05:38:59.528Z,19.92
2018-08-09T05:39:59.661Z,19.89
2018-08-09T05:41:59.377Z,20.09
2018-08-09T05:42:59.850Z,20.08
2018-08-09T05:43:59.251Z,19.93
2018-08-09T05:44:59.389Z,19.94
2018-08-09T05:45:59.238Z,20.07
2018-08-09T05:47:59.624Z,20.07
2018-08-09T05:49:59.179Z,20.12
2018-08-09T05:52:59.429Z,20.26
2018-08-09T05:54:59.436Z,20.36
2018-08-09T05:55:59.105Z,20.29
2018-08-09T05:56:59.154Z,20.29
2018-08-09T05:57:59.082Z,20.26
2018-08-09T05:59:59.122Z,20.34
2018-08-09T06:00:59.106Z,20.30
2018-08-09T06:02:59.480Z,20.36
2018-08-09T06:03:59.110Z,20.26
2018-08-09T06:04:59.665Z,20.44
2018-08-09T06:05:59.775Z,20.42
2018-08-09T06:06:59.032Z,20.36
2018-08-09T06:08:58.989Z,20.49
2018-08-09T06:09:59.297Z,20.58
2018-08-09T06:10:58.950Z,20.53
2018-08-09T06:11:59.081Z,20.65
2018-08-09T06:12:58.907Z,20.74
2018-08-09T06:13:58.916Z,20.71
2018-08-09T06:14:58.988Z,20.79
2018-08-09T06:15:58.880Z,20.74
2018-08-09T06:17:58.997Z,20.90
2018-08-09T06:18:59.150Z,20.97
2018-08-09T06:19:58.918Z,21.07
2018-08-09T06:21:58.964Z,21.29
2018-08-09T06:22:59.127Z,21.34
2018-08-09T06:23:59.186Z,21.37
2018-08-09T06:24:58.773Z,21.55
2018-08-09T06:26:58.754Z,21.69
2018-08-09T06:27:58.747Z,21.77
2018-08-09T06:28:58.726Z,21.75
2018-08-09T06:30:00.202Z,21.80
2018-08-09T06:30:59.064Z,21.75
2018-08-09T06:31:58.705Z,21.74
2018-08-09T06:32:58.694Z,21.73
2018-08-09T06:33:58.873Z,21.78
2018-08-09T06:34:58.668Z,21.75
2018-08-09T06:35:58.760Z,21.80
2018-08-09T06:36:58.944Z,21.82
2018-08-09T06:37:58.777Z,21.82
2018-08-09T06:40:58.597Z,21.90
2018-08-09T06:41:58.646Z,21.85
2018-08-09T06:42:58.990Z,21.97
2018-08-09T06:43:58.570Z,22.01
2018-08-09T06:44:58.558Z,22.07
2018-08-09T06:45:58.543Z,21.97
2018-08-09T06:46:58.588Z,22.06
2018-08-09T06:47:58.777Z,22.03
2018-08-09T06:48:58.866Z,22.03
2018-08-09T06:50:58.841Z,22.16
2018-08-09T06:51:58.861Z,22.22
2018-08-09T06:53:01.134Z,22.31
2018-08-09T06:54:59.220Z,22.40
2018-08-09T06:56:58.524Z,22.53
2018-08-09T06:57:58.421Z,22.55
2018-08-09T06:58:58.409Z,22.70
2018-08-09T06:59:58.937Z,22.70
2018-08-09T07:01:00.507Z,22.70
2018-08-09T07:01:58.766Z,22.71
2018-08-09T07:02:58.518Z,22.78
2018-08-09T07:04:01.391Z,22.86
2018-08-09T07:04:58.713Z,22.88
2018-08-09T07:05:58.684Z,22.98
2018-08-09T07:06:58.680Z,23.07
2018-08-09T07:07:58.375Z,22.93
2018-08-09T07:08:58.495Z,23.10
2018-08-09T07:09:58.951Z,23.08
2018-08-09T07:10:58.282Z,23.17
2018-08-09T07:11:58.320Z,23.22
2018-08-09T07:12:58.771Z,23.29
2018-08-09T07:13:58.579Z,23.31
2018-08-09T07:14:58.465Z,23.37
2018-08-09T07:15:58.421Z,23.45
2018-08-09T07:16:58.437Z,23.48
2018-08-09T07:17:58.317Z,23.61
2018-08-09T07:20:04.016Z,23.56
2018-08-09T07:21:01.271Z,23.64
2018-08-09T07:23:00.745Z,23.67
2018-08-09T07:23:59.619Z,23.85
2018-08-09T07:24:58.281Z,23.94
2018-08-09T07:25:58.151Z,24.00
2018-08-09T07:26:59.067Z,24.07
2018-08-09T07:27:59.539Z,24.21
2018-08-09T07:28:59.791Z,24.28
2018-08-09T07:29:58.149Z,24.26
2018-08-09T07:30:59.642Z,24.16
2018-08-09T07:32:58.407Z,24.01
2018-08-09T07:35:44.144Z,24.44
2018-08-09T07:36:44.229Z,24.51
2018-08-09T07:37:43.970Z,24.63
2018-08-09T07:38:43.923Z,24.68
2018-08-09T07:39:43.802Z,24.60
2018-08-09T07:40:44.087Z,24.81
2018-08-09T07:41:43.820Z,24.84
2018-08-09T07:42:43.804Z,24.85
2018-08-09T07:43:43.800Z,24.93
2018-08-09T07:44:43.715Z,24.81
2018-08-09T07:45:43.699Z,24.84
2018-08-09T07:46:44.048Z,24.90
2018-08-09T07:47:43.982Z,24.96
2018-08-09T07:48:43.676Z,25.06
2018-08-09T07:49:43.661Z,25.12
2018-08-09T07:50:43.665Z,25.21
2018-08-09T07:52:02.855Z,25.36
2018-08-09T07:52:43.954Z,25.46
2018-08-09T07:53:43.671Z,25.63
2018-08-09T07:54:43.625Z,25.64
2018-08-09T07:55:43.716Z,25.67
2018-08-09T07:56:43.613Z,25.67
2018-08-09T07:57:43.606Z,25.81
2018-08-09T07:58:43.581Z,25.90
2018-08-09T07:59:43.924Z,26.03
2018-08-09T08:01:43.563Z,26.12
2018-08-09T08:02:43.558Z,26.16
2018-08-09T08:03:43.632Z,26.19
2018-08-09T08:04:43.593Z,26.23
2018-08-09T08:05:43.600Z,26.26
2018-08-09T08:06:43.825Z,26.33
2018-08-09T08:07:43.619Z,26.27
2018-08-09T08:08:43.498Z,26.38
2018-08-09T08:10:43.604Z,26.56
2018-08-09T08:11:43.540Z,26.70
2018-08-09T08:12:44.360Z,26.78
2018-08-09T08:13:43.479Z,26.78
2018-08-09T08:14:43.450Z,26.89
2018-08-09T08:15:45.477Z,26.97
2018-08-09T08:17:44.128Z,27.00
2018-08-09T08:19:43.429Z,26.90
2018-08-09T08:20:43.473Z,27.05
2018-08-09T08:21:43.494Z,27.08
2018-08-09T08:22:43.412Z,27.12
2018-08-09T08:23:43.641Z,27.25
2018-08-09T08:24:43.438Z,27.47
2018-08-09T08:25:43.762Z,27.57
2018-08-09T08:26:43.436Z,27.76
2018-08-09T08:27:43.408Z,27.50
2018-08-09T08:28:43.395Z,27.64
2018-08-09T08:30:43.360Z,27.75
2018-08-09T08:31:43.662Z,27.73
2018-08-09T08:32:43.664Z,27.85
2018-08-09T08:33:45.099Z,27.91
2018-08-09T08:34:43.353Z,27.91
2018-08-09T08:35:43.414Z,28.03
2018-08-09T08:36:43.302Z,28.19
2018-08-09T08:37:43.613Z,28.09
2018-08-09T08:38:43.288Z,28.17
2018-08-09T08:42:43.281Z,28.22
2018-08-09T08:43:43.637Z,28.34
2018-08-09T08:44:43.351Z,28.38
2018-08-09T08:45:43.277Z,28.47
2018-08-09T08:46:43.343Z,28.47
2018-08-09T08:48:43.282Z,28.69
2018-08-09T08:49:43.535Z,28.93
2018-08-09T08:50:43.222Z,29.07
2018-08-09T08:51:43.229Z,29.10
2018-08-09T08:52:43.217Z,29.17
2018-08-09T08:53:43.282Z,29.27
2018-08-09T08:54:43.492Z,29.19
2018-08-09T08:55:43.416Z,29.34
2018-08-09T08:56:43.497Z,29.31
2018-08-09T08:57:43.397Z,29.18
2018-08-09T08:58:43.202Z,29.21
2018-08-09T08:59:43.381Z,29.25
2018-08-09T09:00:43.180Z,29.31
2018-08-09T09:01:43.172Z,29.31
2018-08-09T09:02:44.100Z,29.49
2018-08-09T09:03:47.570Z,29.36
2018-08-09T09:04:45.622Z,29.54
2018-08-09T09:06:49.359Z,29.89
2018-08-09T09:08:43.495Z,30.02
2018-08-09T09:09:43.165Z,30.11
2018-08-09T09:10:43.147Z,29.92
2018-08-09T09:11:43.189Z,29.95
2018-08-09T09:12:43.145Z,29.99
2018-08-09T09:13:43.189Z,29.95
2018-08-09T09:14:43.127Z,29.96
2018-08-09T09:16:43.438Z,29.95
2018-08-09T09:17:46.257Z,29.92
2018-08-09T09:18:43.146Z,29.96
2018-08-09T09:19:43.706Z,29.96
2018-08-09T09:20:43.308Z,30.10
2018-08-09T09:22:45.040Z,30.17
2018-08-09T09:23:43.921Z,30.29
2018-08-09T09:24:54.207Z,30.39
2018-08-09T09:26:43.205Z,30.55
2018-08-09T09:28:43.461Z,30.80
2018-08-09T09:29:50.292Z,30.75
2018-08-09T09:30:43.266Z,30.82
2018-08-09T09:32:43.134Z,30.86
2018-08-09T09:33:43.248Z,30.82
2018-08-09T09:34:43.456Z,30.78
2018-08-09T09:35:43.134Z,30.82
2018-08-09T09:36:43.096Z,30.75
2018-08-09T09:37:43.093Z,30.77
2018-08-09T09:38:43.075Z,30.74
2018-08-09T09:40:43.130Z,30.89
2018-08-09T09:41:43.369Z,30.92
2018-08-09T09:42:43.084Z,31.01
2018-08-09T09:43:43.068Z,31.24
2018-08-09T09:44:43.074Z,31.37
2018-08-09T09:46:43.317Z,31.12
2018-08-09T09:47:43.367Z,31.38
2018-08-09T09:48:56.203Z,31.56
2018-08-09T09:49:43.110Z,31.78
2018-08-09T09:50:43.062Z,31.74
2018-08-09T09:51:43.079Z,31.84
2018-08-09T09:52:43.110Z,31.82
2018-08-09T09:53:43.361Z,31.79
2018-08-09T09:55:43.154Z,31.71
2018-08-09T09:56:43.074Z,31.95
2018-08-09T09:57:43.065Z,32.17
2018-08-09T09:58:43.108Z,32.14
2018-08-09T09:59:43.357Z,32.24
2018-08-09T10:01:43.102Z,32.28
2018-08-09T10:02:43.065Z,32.14
2018-08-09T10:03:43.052Z,32.24
2018-08-09T10:04:43.131Z,32.27
2018-08-09T10:05:43.415Z,32.35
2018-08-09T10:06:43.128Z,32.33
2018-08-09T10:08:43.078Z,32.57
2018-08-09T10:09:43.192Z,32.51
2018-08-09T10:10:43.131Z,32.43
2018-08-09T10:11:43.369Z,32.46
2018-08-09T10:12:43.092Z,32.61
2018-08-09T10:13:43.204Z,32.65
2018-08-09T10:15:43.058Z,32.90
2018-08-09T10:16:43.134Z,33.06
2018-08-09T10:17:43.467Z,33.29
2018-08-09T10:18:43.878Z,33.47
2018-08-09T10:19:43.126Z,33.63
2018-08-09T10:20:43.068Z,33.76
2018-08-09T10:21:43.219Z,33.84
2018-08-09T10:22:43.117Z,33.79
2018-08-09T10:23:43.372Z,34.01
2018-08-09T10:24:43.099Z,34.03
2018-08-09T10:25:43.071Z,33.93
2018-08-09T10:26:44.357Z,33.89
2018-08-09T10:27:43.128Z,34.06
2018-08-09T10:28:43.137Z,34.04
2018-08-09T10:29:43.070Z,33.98
2018-08-09T10:30:43.386Z,33.74
2018-08-09T10:31:43.125Z,33.42
2018-08-09T10:32:43.076Z,32.98
2018-08-09T10:33:43.132Z,33.20
2018-08-09T10:34:43.174Z,33.44
2018-08-09T10:36:43.382Z,33.97
2018-08-09T10:37:43.091Z,34.26
2018-08-09T10:38:43.097Z,34.29
2018-08-09T10:40:43.090Z,34.30
2018-08-09T10:41:43.088Z,34.42
2018-08-09T10:42:43.469Z,34.52
2018-08-09T10:43:43.303Z,34.63
2018-08-09T10:44:43.178Z,34.59
2018-08-09T10:45:43.263Z,34.28
2018-08-09T10:46:43.226Z,34.32
2018-08-09T10:47:43.103Z,34.63
2018-08-09T10:48:43.406Z,34.73
2018-08-09T10:49:43.100Z,35.01
2018-08-09T10:51:43.180Z,35.42
2018-08-09T10:52:43.404Z,35.35
2018-08-09T10:53:43.230Z,35.35
2018-08-09T10:54:43.425Z,35.20
2018-08-09T10:55:43.158Z,34.66
2018-08-09T10:56:43.264Z,33.76
2018-08-09T10:57:43.119Z,33.30
2018-08-09T10:58:43.118Z,33.30
2018-08-09T10:59:43.139Z,33.67
2018-08-09T11:00:43.445Z,34.13
2018-08-09T11:01:43.205Z,34.55
2018-08-09T11:02:43.200Z,34.78
2018-08-09T11:03:43.169Z,34.98
2018-08-09T11:04:43.184Z,34.95
2018-08-09T11:05:43.151Z,35.17
2018-08-09T11:06:43.593Z,35.26
2018-08-09T11:09:43.521Z,35.65
2018-08-09T11:11:43.202Z,35.70
2018-08-09T11:13:43.204Z,36.17
2018-08-09T11:14:43.162Z,36.06
2018-08-09T11:15:43.416Z,36.14
2018-08-09T11:16:43.279Z,36.38
2018-08-09T11:17:43.402Z,36.25
2018-08-09T11:18:43.327Z,36.04
2018-08-09T11:19:43.491Z,35.91
2018-08-09T11:20:43.213Z,36.06
2018-08-09T11:21:43.397Z,36.26
2018-08-09T11:22:43.870Z,36.47
2018-08-09T11:23:44.078Z,36.40
2018-08-09T11:24:45.396Z,36.38
2018-08-09T11:25:43.566Z,36.40
2018-08-09T11:27:43.267Z,35.95
2018-08-09T11:28:43.236Z,35.50
2018-08-09T11:29:43.207Z,34.94
2018-08-09T11:31:43.981Z,34.08
2018-08-09T11:32:44.045Z,34.03
2018-08-09T11:33:45.418Z,34.20
2018-08-09T11:34:43.492Z,34.70
2018-08-09T11:36:44.529Z,34.83
2018-08-09T11:37:43.806Z,34.56
2018-08-09T11:38:43.882Z,34.13
2018-08-09T11:39:43.358Z,34.00
2018-08-09T11:40:43.366Z,33.88
2018-08-09T11:41:43.296Z,34.22
2018-08-09T11:42:43.363Z,35.07
2018-08-09T11:43:43.576Z,35.58
2018-08-09T11:44:43.272Z,36.07
2018-08-09T11:45:43.332Z,36.29
2018-08-09T11:46:43.869Z,36.40
2018-08-09T11:47:43.701Z,36.33
2018-08-09T11:48:43.255Z,36.35
2018-08-09T11:49:43.380Z,36.09
2018-08-09T11:50:43.758Z,36.13
2018-08-09T11:51:43.616Z,36.27
2018-08-09T11:52:43.544Z,36.00
2018-08-09T11:53:43.322Z,36.29
2018-08-09T11:54:43.280Z,35.94
2018-08-09T11:55:43.274Z,35.90
2018-08-09T11:56:43.722Z,36.19
2018-08-09T11:57:43.341Z,36.17
2018-08-09T11:58:43.432Z,36.22
2018-08-09T11:59:43.548Z,35.56
2018-08-09T12:00:43.322Z,34.99
2018-08-09T12:01:43.491Z,34.37
2018-08-09T12:02:43.504Z,33.81
2018-08-09T12:03:43.892Z,33.63
2018-08-09T12:04:43.557Z,33.49
2018-08-09T12:05:43.503Z,33.27
2018-08-09T12:06:43.484Z,33.03
2018-08-09T12:07:43.311Z,32.83
2018-08-09T12:08:43.385Z,32.70
2018-08-09T12:09:43.730Z,32.88
2018-08-09T12:10:43.637Z,33.33
2018-08-09T12:11:43.331Z,33.71
2018-08-09T12:12:43.312Z,34.76
2018-08-09T12:13:43.319Z,35.48
2018-08-09T12:14:43.316Z,35.68
2018-08-09T12:15:43.367Z,36.23
2018-08-09T12:17:43.632Z,36.61
2018-08-09T12:18:43.381Z,35.92
2018-08-09T12:19:43.408Z,35.88
2018-08-09T12:20:43.390Z,36.27
2018-08-09T12:21:43.570Z,36.44
2018-08-09T12:22:43.327Z,36.51
2018-08-09T12:24:43.768Z,36.60
2018-08-09T12:25:43.598Z,36.74
2018-08-09T12:26:43.449Z,36.79
2018-08-09T12:27:43.659Z,36.97
2018-08-09T12:28:43.355Z,37.01
2018-08-09T12:29:43.450Z,36.78
2018-08-09T12:30:43.878Z,36.82
2018-08-09T12:31:44.074Z,36.98
2018-08-09T12:32:43.359Z,37.13
2018-08-09T12:33:43.415Z,37.03
2018-08-09T12:34:43.438Z,37.32
2018-08-09T12:35:43.377Z,37.64
2018-08-09T12:36:43.684Z,37.67
2018-08-09T12:37:43.436Z,37.73
2018-08-09T12:38:43.492Z,37.35
2018-08-09T12:39:43.453Z,37.31
2018-08-09T12:41:43.495Z,37.69
2018-08-09T12:42:43.734Z,37.85
2018-08-09T12:43:43.411Z,38.04
2018-08-09T12:44:43.392Z,37.38
2018-08-09T12:45:43.448Z,36.11
2018-08-09T12:46:43.427Z,36.27
2018-08-09T12:47:43.405Z,36.27
2018-08-09T12:49:02.911Z,36.49
2018-08-09T12:49:43.413Z,36.91
2018-08-09T12:50:43.430Z,37.13
2018-08-09T12:51:43.463Z,37.55
2018-08-09T12:52:43.426Z,37.55
2018-08-09T12:53:43.420Z,36.25
2018-08-09T12:54:43.738Z,36.70
2018-08-09T12:55:43.423Z,37.17
2018-08-09T12:56:43.425Z,37.31
2018-08-09T12:57:43.478Z,37.32
2018-08-09T12:58:43.433Z,37.60
2018-08-09T12:59:43.441Z,37.74
2018-08-09T13:00:43.746Z,37.89
2018-08-09T13:01:43.441Z,38.16
2018-08-09T13:02:43.453Z,38.25
2018-08-09T13:03:43.515Z,37.79
2018-08-09T13:04:43.469Z,37.03
2018-08-09T13:05:43.493Z,36.29
2018-08-09T13:06:43.823Z,35.12
2018-08-09T13:07:43.508Z,34.57
2018-08-09T13:08:43.555Z,34.28
2018-08-09T13:09:43.558Z,35.24
2018-08-09T13:10:43.488Z,35.77
2018-08-09T13:11:43.474Z,36.49
2018-08-09T13:12:43.784Z,36.75
2018-08-09T13:13:43.479Z,36.79
2018-08-09T13:14:43.492Z,37.12
2018-08-09T13:15:43.549Z,37.69
2018-08-09T13:16:43.586Z,37.72
2018-08-09T13:17:43.530Z,37.79
2018-08-09T13:18:43.796Z,37.72
2018-08-09T13:19:43.496Z,36.64
2018-08-09T13:20:43.563Z,35.77
2018-08-09T13:21:43.953Z,34.76
2018-08-09T13:22:43.818Z,34.10
2018-08-09T13:23:43.635Z,33.44
2018-08-09T13:24:44.263Z,33.26
2018-08-09T13:25:44.051Z,33.09
2018-08-09T13:26:43.514Z,32.99
2018-08-09T13:27:43.562Z,32.98
2018-08-09T13:28:43.511Z,32.97
2018-08-09T13:29:43.723Z,32.99
2018-08-09T13:30:43.894Z,32.94
2018-08-09T13:31:43.647Z,32.98
2018-08-09T13:32:43.516Z,32.95
2018-08-09T13:33:43.622Z,33.07
2018-08-09T13:34:43.541Z,33.04
2018-08-09T13:35:43.536Z,32.98
2018-08-09T13:36:43.818Z,33.01
2018-08-09T13:37:43.516Z,32.99
2018-08-09T13:38:43.524Z,33.07
2018-08-09T13:39:43.578Z,33.13
2018-08-09T13:40:43.566Z,32.97
2018-08-09T13:43:43.513Z,32.97
2018-08-09T13:44:43.615Z,32.92
2018-08-09T13:45:43.578Z,32.98
2018-08-09T13:46:43.540Z,32.98
2018-08-09T13:48:44.549Z,33.49
2018-08-09T13:49:43.587Z,33.49
2018-08-09T13:51:43.581Z,33.44
2018-08-09T13:52:44.005Z,33.49
2018-08-09T13:53:43.633Z,33.49
2018-08-09T13:54:44.325Z,33.41
2018-08-09T13:55:45.559Z,33.33
2018-08-09T13:56:44.954Z,33.45
2018-08-09T13:57:43.827Z,33.57
2018-08-09T13:58:44.040Z,33.71
2018-08-09T14:00:43.805Z,33.85
2018-08-09T14:02:43.680Z,34.82
2018-08-09T14:03:43.542Z,35.23
2018-08-09T14:04:43.520Z,35.44
2018-08-09T14:05:43.516Z,35.13
2018-08-09T14:06:43.805Z,34.83
2018-08-09T14:07:43.490Z,34.28
2018-08-09T14:08:43.485Z,34.10
2018-08-09T14:09:43.519Z,33.86
2018-08-09T14:11:43.527Z,33.78
2018-08-09T14:12:43.857Z,33.67
2018-08-09T14:13:43.891Z,33.64
2018-08-09T14:14:43.486Z,33.76
2018-08-09T14:15:44.811Z,33.86
2018-08-09T14:16:43.472Z,34.13
2018-08-09T14:18:43.776Z,34.13
2018-08-09T14:19:43.491Z,34.15
2018-08-09T14:20:46.439Z,34.23
2018-08-09T14:21:43.477Z,34.15
2018-08-09T14:22:43.473Z,34.04
2018-08-09T14:23:43.762Z,33.86
2018-08-09T14:24:43.859Z,33.67
2018-08-09T14:26:44.012Z,34.30
2018-08-09T14:28:43.500Z,35.32
2018-08-09T14:29:43.493Z,35.60
2018-08-09T14:30:43.783Z,35.73
2018-08-09T14:31:43.661Z,35.51
2018-08-09T14:32:43.556Z,36.02
2018-08-09T14:35:43.604Z,36.94
2018-08-09T14:36:44.126Z,37.03
2018-08-09T14:37:43.508Z,37.25
2018-08-09T14:39:43.470Z,35.94
2018-08-09T14:40:43.543Z,35.23
2018-08-09T14:41:43.499Z,35.23
2018-08-09T14:42:48.010Z,35.24
2018-08-09T14:44:43.520Z,35.48
2018-08-09T14:45:44.067Z,35.90
2018-08-09T14:46:43.486Z,36.04
2018-08-09T14:47:43.483Z,36.23
2018-08-09T14:49:43.724Z,35.56
2018-08-09T14:50:43.502Z,35.46
2018-08-09T14:52:43.479Z,34.60